Bloomfield Township, Michigan
Current Conditions -  °F | °C
As of 1:35 PM on Monday 20 Oct 2014 (Local Time) from KVLL Reporting Station
Overcast Overcast  
Wind Chill: 55°   Ceiling: 5000
Heat Index: 55°   Visibility: 10mi
Dew Point: 46°   Wind: 8mph
Humidity: 71%   Direction: 220°SW
Pressure: 29.81"   Gusts: NA
Location:  42.5858°N, 83.2941°W
Report Text: KVLL 201735Z AUTO 22007KT 10SM SCT018 BKN050 OVC070 13/08 A2981 RMK AO2 T01300078
Loading
Personal Weather Stations






























Interactive Weather Map
Tropical Storm Tracking
New forecast layout! Learn more

10-Day Weather Forecast

Advertisements
Track Severe Weather on mobile